createdAt,value
2023-03-30T00:00:54.816Z,94755.00
2023-03-30T00:01:54.850Z,94753.00
2023-03-30T00:02:54.997Z,94753.00
2023-03-30T00:03:55.033Z,94753.00
2023-03-30T00:04:54.949Z,94753.00
2023-03-30T00:05:54.898Z,94751.00
2023-03-30T00:06:54.928Z,94749.00
2023-03-30T00:07:54.933Z,94749.00
2023-03-30T00:08:54.971Z,94749.00
2023-03-30T00:09:54.970Z,94751.00
2023-03-30T00:10:54.991Z,94753.00
2023-03-30T00:11:55.012Z,94753.00
2023-03-30T00:12:55.044Z,94751.00
2023-03-30T00:13:55.044Z,94749.00
2023-03-30T00:14:55.037Z,94751.00
2023-03-30T00:15:55.106Z,94749.00
2023-03-30T00:16:55.193Z,94749.00
2023-03-30T00:17:55.296Z,94749.00
2023-03-30T00:18:55.113Z,94749.00
2023-03-30T00:19:55.168Z,94749.00
2023-03-30T00:20:55.155Z,94749.00
2023-03-30T00:21:55.176Z,94745.00
2023-03-30T00:22:55.173Z,94738.00
2023-03-30T00:23:55.223Z,94728.00
2023-03-30T00:24:55.225Z,94736.00
2023-03-30T00:25:55.266Z,94732.00
2023-03-30T00:26:55.240Z,94734.00
2023-03-30T00:27:55.275Z,94726.00
2023-03-30T00:28:55.288Z,94730.00
2023-03-30T00:29:55.313Z,94726.00
2023-03-30T00:30:55.322Z,94734.00
2023-03-30T00:31:55.392Z,94732.00
2023-03-30T00:32:55.426Z,94732.00
2023-03-30T00:33:55.417Z,94738.00
2023-03-30T00:34:55.413Z,94730.00
2023-03-30T00:35:55.485Z,94730.00
2023-03-30T00:36:55.469Z,94730.00
2023-03-30T00:37:55.479Z,94728.00
2023-03-30T00:38:55.488Z,94724.00
2023-03-30T00:39:55.531Z,94726.00
2023-03-30T00:40:55.529Z,94718.00
2023-03-30T00:41:55.565Z,94720.00
2023-03-30T00:42:55.583Z,94722.00
2023-03-30T00:43:55.610Z,94718.00
2023-03-30T00:44:55.600Z,94722.00
2023-03-30T00:45:55.696Z,94720.00
2023-03-30T00:46:55.675Z,94720.00
2023-03-30T00:47:55.742Z,94718.00
2023-03-30T00:48:55.687Z,94716.00
2023-03-30T00:49:55.714Z,94716.00
2023-03-30T00:50:55.715Z,94720.00
2023-03-30T00:51:55.737Z,94718.00
2023-03-30T00:52:55.752Z,94724.00
2023-03-30T00:53:55.769Z,94722.00
2023-03-30T00:54:55.788Z,94724.00
2023-03-30T00:55:55.802Z,94722.00
2023-03-30T00:56:55.851Z,94724.00
2023-03-30T00:57:55.835Z,94724.00
2023-03-30T00:58:55.859Z,94726.00
2023-03-30T00:59:55.875Z,94726.00
2023-03-30T01:00:55.906Z,94730.00
2023-03-30T01:01:55.965Z,94728.00
2023-03-30T01:02:56.169Z,94728.00
2023-03-30T01:03:55.981Z,94728.00
2023-03-30T01:04:55.958Z,94726.00
2023-03-30T01:05:55.975Z,94728.00
2023-03-30T01:06:55.986Z,94730.00
2023-03-30T01:07:56.007Z,94726.00
2023-03-30T01:08:56.070Z,94726.00
2023-03-30T01:09:56.041Z,94726.00
2023-03-30T01:10:56.047Z,94724.00
2023-03-30T01:11:56.084Z,94724.00
2023-03-30T01:12:56.102Z,94724.00
2023-03-30T01:13:56.102Z,94722.00
2023-03-30T01:14:56.128Z,94722.00
2023-03-30T01:15:56.151Z,94724.00
2023-03-30T01:16:56.142Z,94726.00
2023-03-30T01:17:56.183Z,94722.00
2023-03-30T01:18:56.153Z,94724.00
2023-03-30T01:19:56.182Z,94724.00
2023-03-30T01:20:56.220Z,94720.00
2023-03-30T01:21:56.211Z,94716.00
2023-03-30T01:22:56.215Z,94716.00
2023-03-30T01:23:56.250Z,94712.00
2023-03-30T01:24:56.256Z,94710.00
2023-03-30T01:25:56.259Z,94708.00
2023-03-30T01:26:56.284Z,94708.00
2023-03-30T01:27:56.291Z,94708.00
2023-03-30T01:28:56.330Z,94708.00
2023-03-30T01:29:56.328Z,94708.00
2023-03-30T01:30:56.398Z,94706.00
2023-03-30T01:31:56.348Z,94708.00
2023-03-30T01:32:56.410Z,94710.00
2023-03-30T01:33:56.409Z,94710.00
2023-03-30T01:34:56.412Z,94712.00
2023-03-30T01:35:56.503Z,94714.00
2023-03-30T01:36:56.451Z,94714.00
2023-03-30T01:37:56.474Z,94712.00
2023-03-30T01:38:56.496Z,94710.00
2023-03-30T01:39:56.508Z,94706.00
2023-03-30T01:40:56.536Z,94706.00
2023-03-30T01:41:56.549Z,94706.00
2023-03-30T01:42:56.585Z,94706.00
2023-03-30T01:43:56.580Z,94710.00
2023-03-30T01:44:56.630Z,94706.00
2023-03-30T01:45:56.624Z,94704.00
2023-03-30T01:46:56.667Z,94710.00
2023-03-30T01:47:56.693Z,94708.00
2023-03-30T01:48:56.699Z,94708.00
2023-03-30T01:49:56.705Z,94706.00
2023-03-30T01:50:56.728Z,94708.00
2023-03-30T01:51:56.764Z,94704.00
2023-03-30T01:52:56.777Z,94698.00
2023-03-30T01:53:56.813Z,94696.00
2023-03-30T01:54:56.810Z,94693.00
2023-03-30T01:55:56.854Z,94689.00
2023-03-30T01:56:56.935Z,94687.00
2023-03-30T01:57:56.903Z,94685.00
2023-03-30T01:58:56.941Z,94681.00
2023-03-30T01:59:56.950Z,94681.00
2023-03-30T02:00:56.971Z,94677.00
2023-03-30T02:01:57.008Z,94673.00
2023-03-30T02:02:57.084Z,94673.00
2023-03-30T02:03:57.103Z,94671.00
2023-03-30T02:04:57.051Z,94671.00
2023-03-30T02:05:57.083Z,94671.00
2023-03-30T02:06:57.108Z,94669.00
2023-03-30T02:07:57.133Z,94669.00
2023-03-30T02:08:57.171Z,94671.00
2023-03-30T02:09:57.178Z,94671.00
2023-03-30T02:10:57.187Z,94669.00
2023-03-30T02:11:57.239Z,94673.00
2023-03-30T02:12:57.248Z,94675.00
2023-03-30T02:13:57.253Z,94671.00
2023-03-30T02:14:57.289Z,94671.00
2023-03-30T02:15:57.349Z,94665.00
2023-03-30T02:16:57.329Z,94665.00
2023-03-30T02:17:57.429Z,94663.00
2023-03-30T02:18:57.379Z,94663.00
2023-03-30T02:19:57.406Z,94665.00
2023-03-30T02:20:57.406Z,94663.00
2023-03-30T02:21:57.448Z,94669.00
2023-03-30T02:22:57.476Z,94667.00
2023-03-30T02:23:57.503Z,94667.00
2023-03-30T02:24:57.526Z,94667.00
2023-03-30T02:25:57.537Z,94669.00
2023-03-30T02:26:57.556Z,94667.00
2023-03-30T02:27:57.578Z,94667.00
2023-03-30T02:28:57.621Z,94667.00
2023-03-30T02:29:57.632Z,94669.00
2023-03-30T02:30:57.645Z,94669.00
2023-03-30T02:31:57.724Z,94669.00
2023-03-30T02:32:57.766Z,94669.00
2023-03-30T02:33:57.698Z,94671.00
2023-03-30T02:34:57.730Z,94669.00
2023-03-30T02:35:57.801Z,94669.00
2023-03-30T02:36:57.834Z,94667.00
2023-03-30T02:37:57.813Z,94671.00
2023-03-30T02:38:57.851Z,94669.00
2023-03-30T02:39:57.850Z,94669.00
2023-03-30T02:40:57.890Z,94669.00
2023-03-30T02:41:57.896Z,94663.00
2023-03-30T02:42:57.938Z,94659.00
2023-03-30T02:43:57.965Z,94659.00
2023-03-30T02:44:57.988Z,94657.00
2023-03-30T02:45:58.056Z,94657.00
2023-03-30T02:46:58.045Z,94655.00
2023-03-30T02:47:58.069Z,94651.00
2023-03-30T02:48:58.105Z,94653.00
2023-03-30T02:49:58.119Z,94653.00
2023-03-30T02:50:58.136Z,94653.00
2023-03-30T02:51:58.171Z,94655.00
2023-03-30T02:52:58.180Z,94659.00
2023-03-30T02:53:58.206Z,94659.00
2023-03-30T02:54:58.239Z,94657.00
2023-03-30T02:55:58.272Z,94657.00
2023-03-30T02:56:58.347Z,94655.00
2023-03-30T02:57:58.301Z,94655.00
2023-03-30T02:58:58.351Z,94657.00
2023-03-30T02:59:58.362Z,94659.00
2023-03-30T03:00:59.516Z,94661.00
2023-03-30T03:01:58.451Z,94659.00
2023-03-30T03:02:58.436Z,94659.00
2023-03-30T03:03:58.446Z,94659.00
2023-03-30T03:04:58.463Z,94657.00
2023-03-30T03:05:58.487Z,94653.00
2023-03-30T03:06:58.495Z,94655.00
2023-03-30T03:07:58.512Z,94655.00
2023-03-30T03:08:58.563Z,94653.00
2023-03-30T03:09:58.601Z,94653.00
2023-03-30T03:10:58.590Z,94651.00
2023-03-30T03:11:58.625Z,94653.00
2023-03-30T03:12:58.650Z,94655.00
2023-03-30T03:13:58.687Z,94649.00
2023-03-30T03:14:58.716Z,94651.00
2023-03-30T03:15:58.708Z,94648.00
2023-03-30T03:16:58.798Z,94648.00
2023-03-30T03:17:58.835Z,94648.00
2023-03-30T03:18:58.776Z,94644.00
2023-03-30T03:19:58.795Z,94634.00
2023-03-30T03:20:58.814Z,94632.00
2023-03-30T03:21:58.859Z,94632.00
2023-03-30T03:22:58.883Z,94630.00
2023-03-30T03:23:58.881Z,94632.00
2023-03-30T03:24:58.890Z,94626.00
2023-03-30T03:25:58.930Z,94626.00
2023-03-30T03:26:58.977Z,94622.00
2023-03-30T03:27:58.974Z,94618.00
2023-03-30T03:28:58.996Z,94612.00
2023-03-30T03:29:59.016Z,94612.00
2023-03-30T03:30:59.073Z,94614.00
2023-03-30T03:31:59.047Z,94614.00
2023-03-30T03:32:59.086Z,94618.00
2023-03-30T03:33:59.088Z,94610.00
2023-03-30T03:34:59.125Z,94610.00
2023-03-30T03:35:59.215Z,94606.00
2023-03-30T03:36:59.176Z,94602.00
2023-03-30T03:37:59.190Z,94602.00
2023-03-30T03:38:59.190Z,94598.00
2023-03-30T03:39:59.244Z,94600.00
2023-03-30T03:40:59.248Z,94598.00
2023-03-30T03:41:59.262Z,94600.00
2023-03-30T03:42:59.267Z,94598.00
2023-03-30T03:43:59.306Z,94598.00
2023-03-30T03:44:59.333Z,94598.00
2023-03-30T03:45:59.448Z,94595.00
2023-03-30T03:46:59.359Z,94593.00
2023-03-30T03:47:59.445Z,94587.00
2023-03-30T03:48:59.401Z,94587.00
2023-03-30T03:49:59.463Z,94583.00
2023-03-30T03:50:59.462Z,94579.00
2023-03-30T03:51:59.480Z,94579.00
2023-03-30T03:52:59.492Z,94577.00
2023-03-30T03:53:59.528Z,94575.00
2023-03-30T03:54:59.529Z,94571.00
2023-03-30T03:55:59.593Z,94567.00
2023-03-30T03:56:59.632Z,94569.00
2023-03-30T03:57:59.596Z,94569.00
2023-03-30T03:58:59.631Z,94569.00
2023-03-30T03:59:59.725Z,94571.00
2023-03-30T04:00:59.744Z,94575.00
2023-03-30T04:01:59.736Z,94577.00
2023-03-30T04:02:59.730Z,94581.00
2023-03-30T04:03:59.737Z,94581.00
2023-03-30T04:04:59.876Z,94583.00
2023-03-30T04:05:59.854Z,94581.00
2023-03-30T04:06:59.832Z,94581.00
2023-03-30T04:07:59.850Z,94581.00
2023-03-30T04:08:59.885Z,94579.00
2023-03-30T04:09:59.903Z,94573.00
2023-03-30T04:10:59.928Z,94575.00
2023-03-30T04:11:59.961Z,94573.00
2023-03-30T04:12:59.972Z,94573.00
2023-03-30T04:14:00.006Z,94573.00
2023-03-30T04:15:00.040Z,94571.00
2023-03-30T04:16:00.081Z,94573.00
2023-03-30T04:17:00.090Z,94571.00
2023-03-30T04:18:00.171Z,94569.00
2023-03-30T04:19:00.173Z,94565.00
2023-03-30T04:20:00.166Z,94567.00
2023-03-30T04:21:00.178Z,94565.00
2023-03-30T04:22:00.229Z,94567.00
2023-03-30T04:23:00.211Z,94565.00
2023-03-30T04:24:00.237Z,94567.00
2023-03-30T04:25:00.263Z,94567.00
2023-03-30T04:26:00.280Z,94565.00
2023-03-30T04:27:00.313Z,94567.00
2023-03-30T04:28:00.334Z,94563.00
2023-03-30T04:29:00.360Z,94563.00
2023-03-30T04:30:00.363Z,94561.00
2023-03-30T04:31:00.394Z,94559.00
2023-03-30T04:32:00.434Z,94561.00
2023-03-30T04:33:00.463Z,94561.00
2023-03-30T04:34:00.446Z,94563.00
2023-03-30T04:35:00.464Z,94565.00
2023-03-30T04:36:00.494Z,94569.00
2023-03-30T04:37:00.501Z,94569.00
2023-03-30T04:38:00.586Z,94567.00
2023-03-30T04:39:00.565Z,94569.00
2023-03-30T04:40:00.565Z,94573.00
2023-03-30T04:41:00.593Z,94573.00
2023-03-30T04:42:00.597Z,94571.00
2023-03-30T04:43:00.602Z,94573.00
2023-03-30T04:44:00.625Z,94575.00
2023-03-30T04:45:00.646Z,94571.00
2023-03-30T04:46:00.694Z,94575.00
2023-03-30T04:47:00.680Z,94575.00
2023-03-30T04:48:00.728Z,94571.00
2023-03-30T04:49:00.784Z,94571.00
2023-03-30T04:50:00.744Z,94573.00
2023-03-30T04:51:00.774Z,94579.00
2023-03-30T04:52:00.780Z,94581.00
2023-03-30T04:53:00.818Z,94583.00
2023-03-30T04:54:00.845Z,94585.00
2023-03-30T04:55:00.866Z,94583.00
2023-03-30T04:56:00.919Z,94579.00
2023-03-30T04:57:00.956Z,94583.00
2023-03-30T04:58:00.921Z,94577.00
2023-03-30T04:59:00.965Z,94583.00
2023-03-30T05:00:01.043Z,94575.00
2023-03-30T05:01:01.032Z,94579.00
2023-03-30T05:02:01.089Z,94573.00
2023-03-30T05:03:01.172Z,94571.00
2023-03-30T05:04:01.090Z,94577.00
2023-03-30T05:05:01.126Z,94573.00
2023-03-30T05:06:01.123Z,94573.00
2023-03-30T05:07:01.166Z,94575.00
2023-03-30T05:08:01.198Z,94573.00
2023-03-30T05:09:01.214Z,94573.00
2023-03-30T05:10:01.223Z,94575.00
2023-03-30T05:11:01.368Z,94575.00
2023-03-30T05:12:01.271Z,94575.00
2023-03-30T05:13:01.301Z,94577.00
2023-03-30T05:14:01.309Z,94579.00
2023-03-30T05:15:01.336Z,94581.00
2023-03-30T05:16:01.333Z,94583.00
2023-03-30T05:17:01.367Z,94585.00
2023-03-30T05:18:01.367Z,94583.00
2023-03-30T05:19:01.384Z,94581.00
2023-03-30T05:20:01.382Z,94581.00
2023-03-30T05:21:01.671Z,94581.00
2023-03-30T05:22:01.480Z,94583.00
2023-03-30T05:23:01.449Z,94583.00
2023-03-30T05:24:01.465Z,94585.00
2023-03-30T05:25:01.486Z,94589.00
2023-03-30T05:26:01.572Z,94593.00
2023-03-30T05:27:01.525Z,94596.00
2023-03-30T05:28:01.565Z,94598.00
2023-03-30T05:29:01.593Z,94598.00
2023-03-30T05:30:01.577Z,94600.00
2023-03-30T05:31:01.761Z,94604.00
2023-03-30T05:32:01.675Z,94604.00
2023-03-30T05:33:01.725Z,94604.00
2023-03-30T05:34:01.690Z,94604.00
2023-03-30T05:35:01.690Z,94602.00
2023-03-30T05:36:01.725Z,94604.00
2023-03-30T05:37:01.690Z,94606.00
2023-03-30T05:38:01.695Z,94602.00
2023-03-30T05:39:01.704Z,94602.00
2023-03-30T05:40:01.727Z,94604.00
2023-03-30T05:41:01.711Z,94602.00
2023-03-30T05:42:01.969Z,94602.00
2023-03-30T05:43:01.677Z,94598.00
2023-03-30T05:44:01.699Z,94596.00
2023-03-30T05:45:01.981Z,94596.00
2023-03-30T05:46:01.831Z,94598.00
2023-03-30T05:47:01.782Z,94600.00
2023-03-30T05:48:01.845Z,94602.00
2023-03-30T05:49:01.873Z,94604.00
2023-03-30T05:50:01.923Z,94606.00
2023-03-30T05:51:02.554Z,94608.00
2023-03-30T05:52:02.019Z,94608.00
2023-03-30T05:53:02.090Z,94606.00
2023-03-30T05:54:02.150Z,94606.00
2023-03-30T05:55:02.244Z,94610.00
2023-03-30T05:56:02.277Z,94612.00
2023-03-30T05:57:02.393Z,94614.00
2023-03-30T05:58:02.391Z,94620.00
2023-03-30T05:59:02.467Z,94622.00
2023-03-30T06:00:02.538Z,94622.00
2023-03-30T06:01:02.756Z,94624.00
2023-03-30T06:02:02.661Z,94626.00
2023-03-30T06:03:02.822Z,94624.00
2023-03-30T06:04:02.823Z,94624.00
2023-03-30T06:05:02.942Z,94620.00
2023-03-30T06:06:02.899Z,94622.00
2023-03-30T06:07:02.977Z,94620.00
2023-03-30T06:08:03.058Z,94614.00
2023-03-30T06:09:03.097Z,94612.00
2023-03-30T06:10:03.477Z,94608.00
2023-03-30T06:11:03.437Z,94602.00
2023-03-30T06:12:03.242Z,94600.00
2023-03-30T06:13:03.325Z,94593.00
2023-03-30T06:14:03.343Z,94589.00
2023-03-30T06:15:03.489Z,94583.00
2023-03-30T06:16:03.892Z,94581.00
2023-03-30T06:17:03.554Z,94569.00
2023-03-30T06:18:04.161Z,94571.00
2023-03-30T06:19:03.612Z,94563.00
2023-03-30T06:20:03.948Z,94561.00
2023-03-30T06:21:03.837Z,94565.00
2023-03-30T06:22:03.756Z,94563.00
2023-03-30T06:23:03.842Z,94563.00
2023-03-30T06:24:03.858Z,94559.00
2023-03-30T06:25:03.928Z,94555.00
2023-03-30T06:26:03.976Z,94553.00
2023-03-30T06:27:03.990Z,94553.00
2023-03-30T06:28:04.036Z,94553.00
2023-03-30T06:29:04.108Z,94553.00
2023-03-30T06:30:04.148Z,94546.00
2023-03-30T06:31:04.387Z,94542.00
2023-03-30T06:32:04.518Z,94540.00
2023-03-30T06:33:04.322Z,94540.00
2023-03-30T06:34:04.265Z,94538.00
2023-03-30T06:35:04.504Z,94536.00
2023-03-30T06:36:04.474Z,94532.00
2023-03-30T06:37:04.423Z,94530.00
2023-03-30T06:38:04.501Z,94528.00
2023-03-30T06:39:06.435Z,94524.00
2023-03-30T06:40:04.990Z,94526.00
2023-03-30T06:41:05.254Z,94526.00
2023-03-30T06:42:04.690Z,94524.00
2023-03-30T06:43:04.730Z,94526.00
2023-03-30T06:44:04.786Z,94528.00
2023-03-30T06:45:04.850Z,94526.00
2023-03-30T06:46:05.014Z,94528.00
2023-03-30T06:47:05.797Z,94528.00
2023-03-30T06:48:05.544Z,94528.00
2023-03-30T06:49:05.067Z,94532.00
2023-03-30T06:50:05.134Z,94536.00
2023-03-30T06:51:05.741Z,94536.00
2023-03-30T06:52:07.459Z,94534.00
2023-03-30T06:53:05.263Z,94540.00
2023-03-30T06:54:05.248Z,94538.00
2023-03-30T06:55:05.257Z,94540.00
2023-03-30T06:56:05.274Z,94540.00
2023-03-30T06:57:05.272Z,94542.00
2023-03-30T06:58:05.200Z,94540.00
2023-03-30T06:59:05.189Z,94542.00
2023-03-30T07:00:05.235Z,94540.00
2023-03-30T07:01:05.394Z,94532.00
2023-03-30T07:02:05.169Z,94530.00
2023-03-30T07:03:05.531Z,94532.00
2023-03-30T07:04:05.202Z,94534.00
2023-03-30T07:05:05.281Z,94538.00
2023-03-30T07:06:05.178Z,94536.00
2023-03-30T07:07:05.159Z,94534.00
2023-03-30T07:08:05.162Z,94536.00
2023-03-30T07:09:06.152Z,94530.00
2023-03-30T07:10:05.135Z,94528.00
2023-03-30T07:11:05.625Z,94528.00
2023-03-30T07:12:05.148Z,94528.00
2023-03-30T07:13:06.382Z,94534.00
2023-03-30T07:14:05.398Z,94540.00
2023-03-30T07:15:05.096Z,94540.00
2023-03-30T07:16:05.095Z,94544.00
2023-03-30T07:17:05.223Z,94544.00
2023-03-30T07:18:05.083Z,94542.00
2023-03-30T07:19:05.061Z,94548.00
2023-03-30T07:20:05.086Z,94548.00
2023-03-30T07:21:05.312Z,94542.00
2023-03-30T07:22:05.065Z,94540.00
2023-03-30T07:23:05.052Z,94534.00
2023-03-30T07:24:05.074Z,94534.00
2023-03-30T07:25:05.060Z,94536.00
2023-03-30T07:26:05.030Z,94528.00
2023-03-30T07:27:05.744Z,94524.00
2023-03-30T07:28:05.008Z,94522.00
2023-03-30T07:29:04.998Z,94520.00
2023-03-30T07:30:17.977Z,94526.00
2023-03-30T07:31:06.516Z,94526.00
2023-03-30T07:32:05.013Z,94532.00
2023-03-30T07:33:05.050Z,94530.00
2023-03-30T07:34:04.986Z,94528.00
2023-03-30T07:35:04.950Z,94532.00
2023-03-30T07:36:04.969Z,94534.00
2023-03-30T07:37:04.935Z,94538.00
2023-03-30T07:38:04.957Z,94540.00
2023-03-30T07:39:04.944Z,94532.00
2023-03-30T07:40:04.944Z,94532.00
2023-03-30T07:41:05.117Z,94530.00
2023-03-30T07:42:04.926Z,94532.00
2023-03-30T07:43:04.888Z,94532.00
2023-03-30T07:44:04.902Z,94530.00
2023-03-30T07:45:04.908Z,94530.00
2023-03-30T07:46:04.968Z,94526.00
2023-03-30T07:47:05.012Z,94524.00
2023-03-30T07:48:05.099Z,94520.00
2023-03-30T07:49:05.148Z,94514.00
2023-03-30T07:50:05.159Z,94512.00
2023-03-30T07:51:05.272Z,94508.00
2023-03-30T07:52:05.292Z,94501.00
2023-03-30T07:53:05.312Z,94495.00
2023-03-30T07:54:05.559Z,94495.00
2023-03-30T07:55:05.407Z,94493.00
2023-03-30T07:56:05.453Z,94493.00
2023-03-30T07:57:05.486Z,94489.00
2023-03-30T07:58:05.518Z,94485.00
2023-03-30T07:59:05.583Z,94483.00
2023-03-30T08:00:05.608Z,94479.00
2023-03-30T08:01:05.848Z,94477.00
2023-03-30T08:02:05.648Z,94477.00
2023-03-30T08:03:06.092Z,94481.00
2023-03-30T08:04:05.801Z,94483.00
2023-03-30T08:05:05.744Z,94481.00
2023-03-30T08:06:05.799Z,94481.00
2023-03-30T08:07:05.773Z,94473.00
2023-03-30T08:08:05.796Z,94467.00
2023-03-30T08:09:05.816Z,94461.00
2023-03-30T08:10:05.840Z,94463.00
2023-03-30T08:11:06.114Z,94461.00
2023-03-30T08:12:05.843Z,94457.00
2023-03-30T08:13:05.847Z,94459.00
2023-03-30T08:14:05.875Z,94461.00
2023-03-30T08:15:05.909Z,94463.00
2023-03-30T08:16:05.954Z,94467.00
2023-03-30T08:17:05.952Z,94465.00
2023-03-30T08:18:05.971Z,94465.00
2023-03-30T08:19:05.931Z,94465.00
2023-03-30T08:20:05.967Z,94463.00
2023-03-30T08:21:06.054Z,94459.00
2023-03-30T08:22:05.976Z,94455.00
2023-03-30T08:23:05.978Z,94455.00
2023-03-30T08:24:06.014Z,94455.00
2023-03-30T08:25:06.037Z,94461.00
2023-03-30T08:26:06.002Z,94459.00
2023-03-30T08:27:06.030Z,94457.00
2023-03-30T08:28:06.105Z,94457.00
2023-03-30T08:29:06.092Z,94452.00
2023-03-30T08:30:06.109Z,94452.00
2023-03-30T08:31:06.402Z,94448.00
2023-03-30T08:32:06.272Z,94440.00
2023-03-30T08:33:06.273Z,94438.00
2023-03-30T08:34:06.279Z,94432.00
2023-03-30T08:35:06.316Z,94430.00
2023-03-30T08:36:06.636Z,94430.00
2023-03-30T08:37:06.447Z,94428.00
2023-03-30T08:38:06.490Z,94428.00
2023-03-30T08:39:06.591Z,94428.00
2023-03-30T08:40:06.636Z,94426.00
2023-03-30T08:41:06.961Z,94426.00
2023-03-30T08:42:06.707Z,94422.00
2023-03-30T08:43:06.764Z,94422.00
2023-03-30T08:44:06.820Z,94422.00
2023-03-30T08:45:06.877Z,94414.00
2023-03-30T08:46:06.986Z,94410.00
2023-03-30T08:47:06.984Z,94410.00
2023-03-30T08:48:07.105Z,94412.00
2023-03-30T08:49:07.133Z,94412.00
2023-03-30T08:50:07.161Z,94414.00
2023-03-30T08:51:07.199Z,94412.00
2023-03-30T08:52:07.260Z,94408.00
2023-03-30T08:53:07.283Z,94408.00
2023-03-30T08:54:07.363Z,94404.00
2023-03-30T08:55:07.341Z,94403.00
2023-03-30T08:56:07.367Z,94404.00
2023-03-30T08:57:07.499Z,94399.00
2023-03-30T08:58:07.434Z,94395.00
2023-03-30T08:59:07.483Z,94395.00
2023-03-30T09:00:07.478Z,94393.00
2023-03-30T09:01:07.716Z,94395.00
2023-03-30T09:02:07.517Z,94393.00
2023-03-30T09:03:07.559Z,94393.00
2023-03-30T09:04:07.541Z,94395.00
2023-03-30T09:05:07.739Z,94397.00
2023-03-30T09:06:08.035Z,94395.00
2023-03-30T09:07:07.597Z,94401.00
2023-03-30T09:08:07.587Z,94401.00
2023-03-30T09:09:07.638Z,94399.00
2023-03-30T09:10:07.628Z,94401.00
2023-03-30T09:11:08.034Z,94403.00
2023-03-30T09:12:07.669Z,94406.00
2023-03-30T09:13:07.702Z,94404.00
2023-03-30T09:14:07.727Z,94406.00
2023-03-30T09:15:07.711Z,94406.00
2023-03-30T09:16:08.121Z,94404.00
2023-03-30T09:17:07.723Z,94404.00
2023-03-30T09:18:07.910Z,94399.00
2023-03-30T09:19:07.739Z,94397.00
2023-03-30T09:20:07.828Z,94393.00
2023-03-30T09:21:08.134Z,94391.00
2023-03-30T09:22:07.801Z,94387.00
2023-03-30T09:23:07.859Z,94387.00
2023-03-30T09:24:07.877Z,94391.00
2023-03-30T09:25:07.855Z,94389.00
2023-03-30T09:26:08.063Z,94391.00
2023-03-30T09:27:07.860Z,94389.00
2023-03-30T09:28:07.924Z,94389.00
2023-03-30T09:29:08.596Z,94393.00
2023-03-30T09:30:07.919Z,94387.00
2023-03-30T09:31:08.118Z,94385.00
2023-03-30T09:32:08.017Z,94373.00
2023-03-30T09:33:08.065Z,94373.00
2023-03-30T09:34:09.533Z,94371.00
2023-03-30T09:35:08.550Z,94365.00
2023-03-30T09:36:08.567Z,94365.00
2023-03-30T09:37:08.077Z,94359.00
2023-03-30T09:38:08.114Z,94361.00
2023-03-30T09:39:08.111Z,94363.00
2023-03-30T09:40:08.157Z,94361.00
2023-03-30T09:41:08.556Z,94359.00
2023-03-30T09:42:08.203Z,94363.00
2023-03-30T09:43:08.212Z,94361.00
2023-03-30T09:44:08.232Z,94357.00
2023-03-30T09:45:08.248Z,94354.00
2023-03-30T09:46:08.452Z,94346.00
2023-03-30T09:47:08.305Z,94346.00
2023-03-30T09:48:08.512Z,94346.00
2023-03-30T09:49:08.364Z,94340.00
2023-03-30T09:50:08.406Z,94338.00
2023-03-30T09:51:09.448Z,94338.00
2023-03-30T09:52:08.479Z,94334.00
2023-03-30T09:53:08.496Z,94334.00
2023-03-30T09:54:08.547Z,94334.00
2023-03-30T09:55:08.587Z,94334.00
2023-03-30T09:56:08.637Z,94328.00
2023-03-30T09:57:08.793Z,94330.00
2023-03-30T09:58:08.748Z,94330.00
2023-03-30T09:59:08.777Z,94330.00
2023-03-30T10:00:08.790Z,94328.00
2023-03-30T10:01:08.929Z,94326.00
2023-03-30T10:02:10.546Z,94324.00
2023-03-30T10:03:09.035Z,94322.00
2023-03-30T10:04:09.198Z,94322.00
2023-03-30T10:05:09.004Z,94318.00
2023-03-30T10:06:09.043Z,94316.00
2023-03-30T10:08:09.091Z,94312.00
2023-03-30T10:09:09.083Z,94308.00
2023-03-30T10:10:09.081Z,94308.00
2023-03-30T10:11:09.111Z,94305.00
2023-03-30T10:12:09.112Z,94308.00
2023-03-30T10:13:09.071Z,94305.00
2023-03-30T10:14:09.038Z,94305.00
2023-03-30T10:15:09.085Z,94305.00
2023-03-30T10:16:09.175Z,94301.00
2023-03-30T10:17:09.033Z,94297.00
2023-03-30T10:18:09.113Z,94295.00
2023-03-30T10:19:09.033Z,94291.00
2023-03-30T10:20:14.094Z,94291.00
2023-03-30T10:21:10.010Z,94289.00
2023-03-30T10:22:09.054Z,94281.00
2023-03-30T10:23:08.997Z,94277.00
2023-03-30T10:24:08.973Z,94273.00
2023-03-30T10:25:10.383Z,94269.00
2023-03-30T10:26:08.963Z,94263.00
2023-03-30T10:27:08.968Z,94260.00
2023-03-30T10:28:08.940Z,94260.00
2023-03-30T10:29:08.952Z,94258.00
2023-03-30T10:30:08.946Z,94254.00
2023-03-30T10:31:09.019Z,94256.00
2023-03-30T10:32:08.955Z,94258.00
2023-03-30T10:33:08.961Z,94258.00
2023-03-30T10:34:08.954Z,94260.00
2023-03-30T10:35:09.054Z,94258.00
2023-03-30T10:36:09.112Z,94256.00
2023-03-30T10:37:09.086Z,94256.00
2023-03-30T10:38:09.124Z,94248.00
2023-03-30T10:39:09.182Z,94246.00
2023-03-30T10:40:09.231Z,94246.00
2023-03-30T10:41:09.274Z,94246.00
2023-03-30T10:42:09.290Z,94248.00
2023-03-30T10:43:09.338Z,94246.00
2023-03-30T10:44:09.359Z,94244.00
2023-03-30T10:45:09.386Z,94242.00
2023-03-30T10:46:19.478Z,94238.00
2023-03-30T10:47:10.562Z,94236.00
2023-03-30T10:48:09.478Z,94230.00
2023-03-30T10:49:09.431Z,94228.00
2023-03-30T10:50:09.458Z,94222.00
2023-03-30T10:51:09.427Z,94218.00
2023-03-30T10:52:09.417Z,94213.00
2023-03-30T10:53:09.402Z,94211.00
2023-03-30T10:54:09.381Z,94207.00
2023-03-30T10:55:09.392Z,94203.00
2023-03-30T10:56:09.397Z,94199.00
2023-03-30T10:57:10.129Z,94201.00
2023-03-30T10:58:09.382Z,94195.00
2023-03-30T10:59:09.379Z,94189.00
2023-03-30T11:00:09.396Z,94191.00
2023-03-30T11:01:09.430Z,94187.00
2023-03-30T11:02:09.441Z,94187.00
2023-03-30T11:03:09.592Z,94179.00
2023-03-30T11:04:22.653Z,94177.00
2023-03-30T11:05:11.066Z,94175.00
2023-03-30T11:06:09.530Z,94175.00
2023-03-30T11:07:09.581Z,94173.00
2023-03-30T11:08:09.496Z,94177.00
2023-03-30T11:09:09.499Z,94175.00
2023-03-30T11:10:09.520Z,94179.00
2023-03-30T11:11:09.492Z,94181.00
2023-03-30T11:12:09.502Z,94181.00
2023-03-30T11:13:09.494Z,94179.00
2023-03-30T11:14:09.468Z,94177.00
2023-03-30T11:15:09.485Z,94177.00
2023-03-30T11:16:09.492Z,94179.00
2023-03-30T11:17:10.265Z,94181.00
2023-03-30T11:18:11.616Z,94181.00
2023-03-30T11:19:09.718Z,94179.00
2023-03-30T11:20:09.688Z,94181.00
2023-03-30T11:21:09.771Z,94181.00
2023-03-30T11:22:09.761Z,94185.00
2023-03-30T11:23:09.845Z,94185.00
2023-03-30T11:24:09.856Z,94181.00
2023-03-30T11:25:09.943Z,94183.00
2023-03-30T11:26:09.964Z,94181.00
2023-03-30T11:27:10.113Z,94179.00
2023-03-30T11:28:10.091Z,94173.00
2023-03-30T11:29:10.125Z,94171.00
2023-03-30T11:30:10.163Z,94167.00
2023-03-30T11:31:10.208Z,94159.00
2023-03-30T11:32:10.399Z,94156.00
2023-03-30T11:33:10.381Z,94152.00
2023-03-30T11:34:10.422Z,94146.00
2023-03-30T11:35:10.450Z,94146.00
2023-03-30T11:36:10.528Z,94144.00
2023-03-30T11:37:10.545Z,94140.00
2023-03-30T11:38:10.623Z,94138.00
2023-03-30T11:39:21.392Z,94136.00
2023-03-30T11:40:11.681Z,94134.00
2023-03-30T11:41:10.675Z,94132.00
2023-03-30T11:42:10.654Z,94130.00
2023-03-30T11:43:10.651Z,94130.00
2023-03-30T11:44:10.653Z,94130.00
2023-03-30T11:45:10.638Z,94128.00
2023-03-30T11:46:10.882Z,94130.00